createdAt,value
2022-12-05T00:01:44.165Z,3.53
2022-12-05T00:04:14.091Z,3.53
2022-12-05T00:06:42.496Z,3.54
2022-12-05T00:09:11.604Z,3.53
2022-12-05T00:11:42.666Z,3.53
2022-12-05T00:14:11.412Z,3.49
2022-12-05T00:16:41.530Z,3.47
2022-12-05T00:19:12.500Z,3.49
2022-12-05T00:21:40.562Z,3.52
2022-12-05T00:24:10.984Z,3.52
2022-12-05T00:26:38.678Z,3.51
2022-12-05T00:29:06.488Z,3.52
2022-12-05T00:31:35.576Z,3.53
2022-12-05T00:34:03.965Z,3.55
2022-12-05T00:36:34.170Z,3.56
2022-12-05T00:39:05.967Z,3.59
2022-12-05T00:41:33.735Z,3.64
2022-12-05T00:44:02.373Z,3.69
2022-12-05T00:46:31.691Z,3.71
2022-12-05T00:49:00.594Z,3.67
2022-12-05T00:51:31.155Z,3.69
2022-12-05T00:54:01.235Z,3.76
2022-12-05T00:56:30.375Z,3.75
2022-12-05T00:58:59.406Z,3.73
2022-12-05T01:01:33.526Z,3.72
2022-12-05T01:04:05.999Z,3.74
2022-12-05T01:06:33.792Z,3.74
2022-12-05T01:09:02.148Z,3.78
2022-12-05T01:11:30.574Z,3.76
2022-12-05T01:13:58.825Z,3.79
2022-12-05T01:16:32.862Z,3.81
2022-12-05T01:19:03.423Z,3.80
2022-12-05T01:21:31.549Z,3.86
2022-12-05T01:23:59.360Z,3.91
2022-12-05T01:26:27.088Z,3.83
2022-12-05T01:28:55.521Z,3.79
2022-12-05T01:31:27.497Z,3.82
2022-12-05T01:33:57.755Z,3.85
2022-12-05T01:36:27.031Z,3.88
2022-12-05T01:38:55.313Z,3.88
2022-12-05T01:41:26.734Z,3.83
2022-12-05T01:44:08.314Z,3.85
2022-12-05T01:46:43.900Z,3.89
2022-12-05T01:49:19.907Z,3.91
2022-12-05T01:51:49.735Z,3.91
2022-12-05T01:54:18.612Z,3.91
2022-12-05T01:56:51.019Z,3.86
2022-12-05T01:59:20.200Z,3.83
2022-12-05T02:01:48.038Z,3.82
2022-12-05T02:04:16.081Z,3.85
2022-12-05T02:06:43.808Z,3.87
2022-12-05T02:09:11.524Z,3.89
2022-12-05T02:11:49.669Z,3.88
2022-12-05T02:14:32.539Z,3.85
2022-12-05T02:17:00.323Z,3.81
2022-12-05T02:19:42.393Z,3.82
2022-12-05T02:22:35.103Z,3.80
2022-12-05T02:25:11.938Z,3.76
2022-12-05T02:27:50.089Z,3.74
2022-12-05T02:30:20.303Z,3.77
2022-12-05T02:33:01.145Z,3.78
2022-12-05T02:35:52.679Z,3.79
2022-12-05T02:38:29.602Z,3.79
2022-12-05T02:41:22.745Z,3.86
2022-12-05T02:43:58.185Z,3.88
2022-12-05T02:46:28.567Z,3.90
2022-12-05T02:49:00.296Z,3.92
2022-12-05T02:51:31.792Z,3.90
2022-12-05T02:54:02.938Z,3.87
2022-12-05T02:56:33.204Z,3.86
2022-12-05T02:59:01.316Z,3.85
2022-12-05T03:01:31.541Z,3.88
2022-12-05T03:04:03.563Z,3.91
2022-12-05T03:06:45.668Z,3.90
2022-12-05T03:09:16.832Z,3.92
2022-12-05T03:11:47.875Z,3.93
2022-12-05T03:14:21.723Z,3.95
2022-12-05T03:16:52.087Z,3.91
2022-12-05T03:19:41.613Z,3.90
2022-12-05T03:22:18.417Z,3.88
2022-12-05T03:24:46.240Z,3.88
2022-12-05T03:27:24.089Z,3.87
2022-12-05T03:29:56.974Z,3.91
2022-12-05T03:36:46.595Z,3.94
2022-12-05T03:39:25.991Z,3.95
2022-12-05T03:42:13.935Z,3.98
2022-12-05T03:44:52.087Z,3.99
2022-12-05T03:47:48.974Z,4.02
2022-12-05T03:50:24.492Z,4.04
2022-12-05T03:53:19.293Z,4.06
2022-12-05T03:55:51.309Z,4.04
2022-12-05T03:58:26.525Z,4.04
2022-12-05T04:00:58.362Z,4.01
2022-12-05T04:03:39.827Z,3.96
2022-12-05T04:06:16.347Z,3.92
2022-12-05T04:08:48.579Z,3.89
2022-12-05T04:11:17.324Z,3.85
2022-12-05T04:13:55.579Z,3.85
2022-12-05T04:16:45.747Z,3.81
2022-12-05T04:19:24.090Z,3.77
2022-12-05T04:21:55.028Z,3.79
2022-12-05T04:24:44.710Z,3.80
2022-12-05T04:27:15.401Z,3.85
2022-12-05T04:30:09.960Z,3.89
2022-12-05T04:32:46.572Z,3.89
2022-12-05T04:35:19.782Z,3.84
2022-12-05T04:37:50.050Z,3.78
2022-12-05T04:40:35.211Z,3.77
2022-12-05T04:43:03.836Z,3.76
2022-12-05T04:45:33.045Z,3.79
2022-12-05T04:48:07.287Z,3.81
2022-12-05T04:50:36.314Z,3.83
2022-12-05T04:53:05.926Z,3.80
2022-12-05T04:55:35.056Z,3.81
2022-12-05T04:58:10.702Z,3.82
2022-12-05T05:00:54.699Z,3.81
2022-12-05T05:03:27.644Z,3.80
2022-12-05T05:05:56.533Z,3.78
2022-12-05T05:08:29.203Z,3.77
2022-12-05T05:11:05.218Z,3.78
2022-12-05T05:13:33.232Z,3.74
2022-12-05T05:16:01.594Z,3.71
2022-12-05T05:18:29.681Z,3.69
2022-12-05T05:20:57.408Z,3.67
2022-12-05T05:23:25.339Z,3.74
2022-12-05T05:25:54.747Z,3.80
2022-12-05T05:28:23.209Z,3.83
2022-12-05T05:30:50.976Z,3.88
2022-12-05T05:33:18.838Z,3.89
2022-12-05T05:35:46.497Z,3.88
2022-12-05T05:38:14.180Z,3.91
2022-12-05T05:40:41.963Z,3.96
2022-12-05T05:43:09.673Z,3.97
2022-12-05T05:45:37.446Z,3.99
2022-12-05T05:48:05.900Z,4.00
2022-12-05T05:50:33.575Z,3.97
2022-12-05T05:53:01.296Z,3.98
2022-12-05T05:55:29.093Z,3.95
2022-12-05T05:57:56.847Z,3.92
2022-12-05T06:00:24.630Z,3.94
2022-12-05T06:02:52.530Z,3.98
2022-12-05T06:05:20.383Z,4.04
2022-12-05T06:07:48.220Z,4.08
2022-12-05T06:10:16.160Z,4.14
2022-12-05T06:12:43.813Z,4.19
2022-12-05T06:15:11.738Z,4.18
2022-12-05T06:17:39.581Z,4.12
2022-12-05T06:20:08.428Z,4.13
2022-12-05T06:22:36.215Z,4.13
2022-12-05T06:25:04.403Z,4.14
2022-12-05T06:27:32.433Z,4.12
2022-12-05T06:30:00.414Z,4.09
2022-12-05T06:32:29.978Z,4.05
2022-12-05T06:34:57.726Z,4.02
2022-12-05T06:37:25.435Z,3.98
2022-12-05T06:39:53.173Z,3.96
2022-12-05T06:42:22.288Z,3.93
2022-12-05T06:44:50.181Z,3.94
2022-12-05T06:47:17.929Z,3.94
2022-12-05T06:49:45.746Z,3.91
2022-12-05T06:52:13.562Z,3.87
2022-12-05T06:54:41.370Z,3.84
2022-12-05T06:57:09.842Z,3.86
2022-12-05T06:59:37.609Z,3.88
2022-12-05T07:02:08.313Z,3.90
2022-12-05T07:04:36.238Z,3.90
2022-12-05T07:07:03.992Z,3.92
2022-12-05T07:09:48.460Z,3.90
2022-12-05T07:12:18.164Z,3.86
2022-12-05T07:14:48.018Z,3.84
2022-12-05T07:17:20.933Z,3.79
2022-12-05T07:19:49.543Z,3.75
2022-12-05T07:22:22.071Z,3.71
2022-12-05T07:24:52.362Z,3.70
2022-12-05T07:27:26.544Z,3.71
2022-12-05T07:29:55.674Z,3.74
2022-12-05T07:32:23.629Z,3.82
2022-12-05T07:34:55.183Z,3.90
2022-12-05T07:37:23.782Z,3.93
2022-12-05T07:39:54.590Z,3.90
2022-12-05T07:42:22.383Z,3.87
2022-12-05T07:44:50.166Z,3.90
2022-12-05T07:47:17.956Z,3.94
2022-12-05T07:49:45.739Z,4.01
2022-12-05T07:52:13.406Z,4.07
2022-12-05T07:54:41.125Z,4.06
2022-12-05T07:57:09.520Z,4.07
2022-12-05T07:59:37.208Z,4.10
2022-12-05T08:02:04.975Z,4.07
2022-12-05T08:04:32.746Z,4.06
2022-12-05T08:07:00.539Z,4.03
2022-12-05T08:09:28.256Z,4.05
2022-12-05T08:11:56.005Z,4.09
2022-12-05T08:14:23.763Z,4.14
2022-12-05T08:16:51.548Z,4.13
2022-12-05T08:19:19.649Z,4.13
2022-12-05T08:21:47.640Z,4.12
2022-12-05T08:24:15.351Z,4.09
2022-12-05T08:26:43.238Z,4.08
2022-12-05T08:29:13.543Z,4.07
2022-12-05T08:31:44.136Z,4.07
2022-12-05T08:34:13.119Z,4.09
2022-12-05T08:36:41.417Z,4.18
2022-12-05T08:39:14.197Z,4.22
2022-12-05T08:41:46.686Z,4.26
2022-12-05T08:44:16.980Z,4.23
2022-12-05T08:46:47.997Z,4.20
2022-12-05T08:49:16.867Z,4.21
2022-12-05T08:51:45.182Z,4.28
2022-12-05T08:54:13.030Z,4.40
2022-12-05T08:56:40.827Z,4.47
2022-12-05T08:59:08.583Z,4.47
2022-12-05T09:01:38.872Z,4.44
2022-12-05T09:04:07.684Z,4.45
2022-12-05T09:06:36.110Z,4.46
2022-12-05T09:09:07.417Z,4.47
2022-12-05T09:11:40.993Z,4.47
2022-12-05T09:14:08.884Z,4.52
2022-12-05T09:16:39.266Z,4.63
2022-12-05T09:19:21.038Z,4.75
2022-12-05T09:21:48.968Z,4.82
2022-12-05T09:24:16.778Z,4.89
2022-12-05T09:26:44.628Z,4.92
2022-12-05T09:31:33.388Z,4.80
2022-12-05T09:34:01.796Z,4.77
2022-12-05T09:36:30.677Z,4.72
2022-12-05T09:39:01.608Z,4.71
2022-12-05T09:42:08.847Z,4.69
2022-12-05T09:45:04.079Z,4.70
2022-12-05T09:47:56.392Z,4.75
2022-12-05T09:50:28.547Z,4.79
2022-12-05T09:53:05.372Z,4.81
2022-12-05T09:56:02.286Z,4.76
2022-12-05T09:59:01.270Z,4.72
2022-12-05T10:01:54.951Z,4.73
2022-12-05T10:04:33.296Z,4.70
2022-12-05T10:07:38.299Z,4.73
2022-12-05T10:10:25.610Z,4.73
2022-12-05T10:13:18.176Z,4.72
2022-12-05T10:15:56.826Z,4.73
2022-12-05T10:18:45.657Z,4.77
2022-12-05T10:21:26.017Z,4.79
2022-12-05T10:23:58.404Z,4.80
2022-12-05T10:26:33.450Z,4.77
2022-12-05T10:29:26.674Z,4.80
2022-12-05T10:32:00.489Z,4.83
2022-12-05T10:34:37.584Z,4.87
2022-12-05T10:37:22.448Z,4.93
2022-12-05T10:39:50.914Z,4.99
2022-12-05T10:42:26.332Z,5.02
2022-12-05T10:44:58.212Z,5.05
2022-12-05T10:47:26.329Z,5.06
2022-12-05T10:49:56.427Z,5.06
2022-12-05T10:52:24.438Z,5.09
2022-12-05T10:54:57.901Z,5.09
2022-12-05T10:57:27.950Z,5.09
2022-12-05T10:59:56.623Z,5.12
2022-12-05T11:02:31.322Z,5.15
2022-12-05T11:05:00.058Z,5.15
2022-12-05T11:07:33.395Z,5.18
2022-12-05T11:10:04.219Z,5.19
2022-12-05T11:12:35.469Z,5.16
2022-12-05T11:15:07.291Z,5.13
2022-12-05T11:21:55.578Z,5.07
2022-12-05T11:24:37.152Z,5.02
2022-12-05T11:27:31.914Z,4.97
2022-12-05T11:30:00.972Z,4.92
2022-12-05T11:32:33.461Z,4.92
2022-12-05T11:35:10.101Z,4.93
2022-12-05T11:37:52.810Z,4.94
2022-12-05T11:40:28.389Z,4.96
2022-12-05T11:43:11.457Z,4.96
2022-12-05T11:45:48.304Z,4.93
2022-12-05T11:48:26.083Z,4.95
2022-12-05T11:51:26.340Z,4.98
2022-12-05T11:53:57.165Z,5.06
2022-12-05T11:56:46.544Z,5.12
2022-12-05T11:59:17.012Z,5.20
2022-12-05T12:02:22.510Z,5.26
2022-12-05T12:04:53.199Z,5.32
2022-12-05T12:07:43.236Z,5.40
2022-12-05T12:10:38.883Z,5.46
2022-12-05T12:13:24.908Z,5.54
2022-12-05T12:16:08.236Z,5.61
2022-12-05T12:18:47.419Z,5.63
2022-12-05T12:21:38.764Z,5.69
2022-12-05T12:24:27.805Z,5.80
2022-12-05T12:27:22.687Z,5.88
2022-12-05T12:29:58.561Z,5.92
2022-12-05T12:33:02.105Z,5.90
2022-12-05T12:35:31.150Z,5.86
2022-12-05T12:38:24.946Z,5.85
2022-12-05T12:40:59.939Z,5.82
2022-12-05T12:44:12.722Z,5.82
2022-12-05T12:46:53.137Z,5.76
2022-12-05T12:49:24.258Z,5.73
2022-12-05T12:51:54.880Z,5.72
2022-12-05T12:55:14.002Z,5.74
2022-12-05T12:57:32.060Z,5.77
2022-12-05T13:00:02.233Z,5.83
2022-12-05T13:02:46.689Z,5.87
2022-12-05T13:05:35.048Z,5.92
2022-12-05T13:08:40.403Z,5.96
2022-12-05T13:11:10.618Z,5.94
2022-12-05T13:13:42.719Z,6.00
2022-12-05T13:16:13.531Z,6.02
2022-12-05T13:18:41.440Z,6.00
2022-12-05T13:21:09.960Z,6.04
2022-12-05T13:23:46.232Z,6.03
2022-12-05T13:26:14.400Z,6.00
2022-12-05T13:28:53.249Z,6.03
2022-12-05T13:31:35.701Z,6.06
2022-12-05T13:34:03.777Z,6.06
2022-12-05T13:36:59.007Z,6.05
2022-12-05T13:39:45.628Z,5.99
2022-12-05T13:42:29.169Z,5.96
2022-12-05T13:45:05.300Z,5.90
2022-12-05T13:48:01.655Z,5.84
2022-12-05T13:50:43.868Z,5.79
2022-12-05T13:53:23.074Z,5.77
2022-12-05T13:56:19.845Z,5.74
2022-12-05T13:58:58.424Z,5.74
2022-12-05T14:01:26.324Z,5.77
2022-12-05T14:03:59.834Z,5.80
2022-12-05T14:06:39.470Z,5.86
2022-12-05T14:09:19.242Z,5.92
2022-12-05T14:12:14.971Z,5.91
2022-12-05T14:14:59.225Z,5.87
2022-12-05T14:17:42.096Z,5.84
2022-12-05T14:20:16.027Z,5.84
2022-12-05T14:22:48.266Z,5.83
2022-12-05T14:25:27.873Z,5.83
2022-12-05T14:28:11.143Z,5.85
2022-12-05T14:30:42.227Z,5.90
2022-12-05T14:33:17.757Z,5.88
2022-12-05T14:35:48.931Z,5.86
2022-12-05T14:38:30.969Z,5.81
2022-12-05T14:41:13.085Z,5.79
2022-12-05T14:43:41.558Z,5.80
2022-12-05T14:46:25.165Z,5.79
2022-12-05T14:48:54.672Z,5.82
2022-12-05T14:51:31.819Z,5.90
2022-12-05T14:54:13.686Z,5.97
2022-12-05T14:56:43.412Z,5.92
2022-12-05T14:59:26.369Z,5.85
2022-12-05T15:01:57.088Z,5.78
2022-12-05T15:04:38.889Z,5.79
2022-12-05T15:07:12.956Z,5.86
2022-12-05T15:10:01.160Z,5.90
2022-12-05T15:12:31.781Z,5.91
2022-12-05T15:15:07.354Z,5.90
2022-12-05T15:17:50.118Z,5.92
2022-12-05T15:20:24.606Z,5.93
2022-12-05T15:22:52.471Z,5.93
2022-12-05T15:25:31.601Z,5.98
2022-12-05T15:28:07.099Z,6.05
2022-12-05T15:30:36.982Z,6.11
2022-12-05T15:33:05.023Z,6.19
2022-12-05T15:35:33.787Z,6.21
2022-12-05T15:38:16.341Z,6.13
2022-12-05T15:40:47.625Z,6.06
2022-12-05T15:43:34.919Z,6.06
2022-12-05T15:46:25.148Z,6.05
2022-12-05T15:48:57.519Z,6.01
2022-12-05T15:51:27.331Z,6.01
2022-12-05T15:54:09.992Z,5.99
2022-12-05T15:56:43.864Z,6.02
2022-12-05T15:59:21.919Z,6.07
2022-12-05T16:01:53.723Z,6.12
2022-12-05T16:04:31.228Z,6.17
2022-12-05T16:07:00.977Z,6.23
2022-12-05T16:09:31.938Z,6.30
2022-12-05T16:12:16.023Z,6.37
2022-12-05T16:14:59.658Z,6.44
2022-12-05T16:17:30.960Z,6.46
2022-12-05T16:20:20.833Z,6.47
2022-12-05T16:22:50.543Z,6.47
2022-12-05T16:25:26.031Z,6.46
2022-12-05T16:28:01.330Z,6.42
2022-12-05T16:30:30.279Z,6.36
2022-12-05T16:33:04.519Z,6.32
2022-12-05T16:35:36.311Z,6.31
2022-12-05T16:38:05.018Z,6.29
2022-12-05T16:40:33.071Z,6.32
2022-12-05T16:43:03.493Z,6.33
2022-12-05T16:45:42.983Z,6.35
2022-12-05T16:48:17.706Z,6.40
2022-12-05T16:50:45.610Z,6.44
2022-12-05T16:53:18.937Z,6.45
2022-12-05T16:55:47.007Z,6.44
2022-12-05T16:58:21.512Z,6.39
2022-12-05T17:00:49.833Z,6.34
2022-12-05T17:03:33.944Z,6.29
2022-12-05T17:06:03.953Z,6.31
2022-12-05T17:08:32.015Z,6.30
2022-12-05T17:11:02.071Z,6.29
2022-12-05T17:13:31.386Z,6.29
2022-12-05T17:15:59.328Z,6.30
2022-12-05T17:18:31.454Z,6.34
2022-12-05T17:21:01.350Z,6.40
2022-12-05T17:23:29.111Z,6.46
2022-12-05T17:25:58.484Z,6.49
2022-12-05T17:28:26.560Z,6.51
2022-12-05T17:30:54.292Z,6.54
2022-12-05T17:33:22.043Z,6.58
2022-12-05T17:35:51.060Z,6.61
2022-12-05T17:38:19.204Z,6.61
2022-12-05T17:40:47.903Z,6.60
2022-12-05T17:43:19.911Z,6.59
2022-12-05T17:45:51.016Z,6.58
2022-12-05T17:48:18.850Z,6.53
2022-12-05T17:50:48.789Z,6.50
2022-12-05T17:53:19.346Z,6.51
2022-12-05T17:55:48.711Z,6.50
2022-12-05T17:58:17.266Z,6.48
2022-12-05T18:00:45.340Z,6.51
2022-12-05T18:03:14.996Z,6.53
2022-12-05T18:05:43.750Z,6.55
2022-12-05T18:08:12.201Z,6.54
2022-12-05T18:10:45.407Z,6.54
2022-12-05T18:13:13.449Z,6.53
2022-12-05T18:15:43.296Z,6.52
2022-12-05T18:18:14.392Z,6.45
2022-12-05T18:20:42.245Z,6.40
2022-12-05T18:23:10.645Z,6.37
2022-12-05T18:25:39.645Z,6.37
2022-12-05T18:28:07.452Z,6.38
2022-12-05T18:30:35.251Z,6.41
2022-12-05T18:33:03.072Z,6.41
2022-12-05T18:35:43.168Z,6.41
2022-12-05T18:38:12.515Z,6.41
2022-12-05T18:40:40.954Z,6.44
2022-12-05T18:43:08.716Z,6.43
2022-12-05T18:45:36.524Z,6.41
2022-12-05T18:48:23.406Z,6.37
2022-12-05T18:50:52.801Z,6.32
2022-12-05T18:53:21.059Z,6.27
2022-12-05T18:56:21.679Z,6.28
2022-12-05T18:58:38.097Z,6.35
2022-12-05T19:01:11.131Z,6.37
2022-12-05T19:03:39.990Z,6.37
2022-12-05T19:06:19.273Z,6.38
2022-12-05T19:08:47.794Z,6.33
2022-12-05T19:11:17.396Z,6.30
2022-12-05T19:13:47.245Z,6.31
2022-12-05T19:16:19.547Z,6.35
2022-12-05T19:18:47.714Z,6.29
2022-12-05T19:21:15.576Z,6.21
2022-12-05T19:23:43.655Z,6.23
2022-12-05T19:26:11.504Z,6.28
2022-12-05T19:28:39.309Z,6.33
2022-12-05T19:31:15.539Z,6.38
2022-12-05T19:33:45.853Z,6.41
2022-12-05T19:36:18.829Z,6.45
2022-12-05T19:38:48.261Z,6.51
2022-12-05T19:41:17.947Z,6.54
2022-12-05T19:43:45.805Z,6.56
2022-12-05T19:46:24.877Z,6.57
2022-12-05T19:48:53.418Z,6.53
2022-12-05T19:51:22.646Z,6.48
2022-12-05T19:53:50.828Z,6.51
2022-12-05T19:56:24.503Z,6.52
2022-12-05T19:58:53.924Z,6.53
2022-12-05T20:01:30.343Z,6.57
2022-12-05T20:04:04.191Z,6.60
2022-12-05T20:06:33.851Z,6.61
2022-12-05T20:09:02.430Z,6.62
2022-12-05T20:11:31.303Z,6.64
2022-12-05T20:14:01.170Z,6.65
2022-12-05T20:16:29.706Z,6.66
2022-12-05T20:18:59.245Z,6.68
2022-12-05T20:21:30.466Z,6.67
2022-12-05T20:23:59.252Z,6.63
2022-12-05T20:26:29.576Z,6.58
2022-12-05T20:28:58.840Z,6.52
2022-12-05T20:31:32.782Z,6.42
2022-12-05T20:34:00.789Z,6.33
2022-12-05T20:36:31.167Z,6.30
2022-12-05T20:39:01.325Z,6.29
2022-12-05T20:41:29.786Z,6.26
2022-12-05T20:43:59.865Z,6.31
2022-12-05T20:46:29.228Z,6.41
2022-12-05T20:48:57.185Z,6.48
2022-12-05T20:51:30.000Z,6.50
2022-12-05T20:53:59.167Z,6.51
2022-12-05T20:56:29.197Z,6.48
2022-12-05T20:59:00.167Z,6.46
2022-12-05T21:01:30.226Z,6.46
2022-12-05T21:03:58.224Z,6.47
2022-12-05T21:06:28.679Z,6.45
2022-12-05T21:08:57.353Z,6.48
2022-12-05T21:11:26.203Z,6.54
2022-12-05T21:14:00.349Z,6.62
2022-12-05T21:16:28.430Z,6.67
2022-12-05T21:18:56.508Z,6.70
2022-12-05T21:21:26.173Z,6.70
2022-12-05T21:23:59.427Z,6.71
2022-12-05T21:26:29.911Z,6.70
2022-12-05T21:28:58.339Z,6.67
2022-12-05T21:31:32.307Z,6.66
2022-12-05T21:34:02.602Z,6.61
2022-12-05T21:36:32.501Z,6.53
2022-12-05T21:39:00.404Z,6.44
2022-12-05T21:41:28.215Z,6.39
2022-12-05T21:43:56.371Z,6.39
2022-12-05T21:46:25.359Z,6.37
2022-12-05T21:48:54.361Z,6.35
2022-12-05T21:51:23.109Z,6.33
2022-12-05T21:53:51.395Z,6.36
2022-12-05T21:56:23.089Z,6.42
2022-12-05T21:58:51.785Z,6.39
2022-12-05T22:01:22.507Z,6.36
2022-12-05T22:04:01.223Z,6.36
2022-12-05T22:06:33.993Z,6.39
2022-12-05T22:09:02.238Z,6.39
2022-12-05T22:11:30.223Z,6.39
2022-12-05T22:13:58.144Z,6.39
2022-12-05T22:16:32.404Z,6.39
2022-12-05T22:19:01.973Z,6.39
2022-12-05T22:21:34.024Z,6.41
2022-12-05T22:24:02.008Z,6.44
2022-12-05T22:26:29.846Z,6.46
2022-12-05T22:28:57.911Z,6.48
2022-12-05T22:31:25.910Z,6.46
2022-12-05T22:33:53.674Z,6.39
2022-12-05T22:36:21.416Z,6.40
2022-12-05T22:38:49.320Z,6.44
2022-12-05T22:41:22.190Z,6.47
2022-12-05T22:43:56.317Z,6.48
2022-12-05T22:46:25.486Z,6.47
2022-12-05T22:48:53.602Z,6.48
2022-12-05T22:51:22.244Z,6.49
2022-12-05T22:53:51.237Z,6.44
2022-12-05T22:56:20.482Z,6.34
2022-12-05T22:58:48.243Z,6.31
2022-12-05T23:01:20.125Z,6.35
2022-12-05T23:03:49.644Z,6.38
2022-12-05T23:06:17.802Z,6.34
2022-12-05T23:08:47.987Z,6.25
2022-12-05T23:11:17.285Z,6.26
2022-12-05T23:13:45.823Z,6.34
2022-12-05T23:16:22.399Z,6.38
2022-12-05T23:18:53.441Z,6.29
2022-12-05T23:21:26.935Z,6.29
2022-12-05T23:23:56.327Z,6.33
2022-12-05T23:26:26.397Z,6.35
2022-12-05T23:28:54.296Z,6.36
2022-12-05T23:31:22.559Z,6.38
2022-12-05T23:33:51.706Z,6.37
2022-12-05T23:36:20.440Z,6.36
2022-12-05T23:38:48.585Z,6.35
2022-12-05T23:41:17.584Z,6.29
2022-12-05T23:43:46.065Z,6.27
2022-12-05T23:46:14.927Z,6.28
2022-12-05T23:48:43.130Z,6.31
2022-12-05T23:51:14.481Z,6.34
2022-12-05T23:53:44.803Z,6.34
2022-12-05T23:56:16.865Z,6.33
2022-12-05T23:58:45.163Z,6.34
